Time;durP1;ratioP1;P1;durP2;ratioP2;P2;SDS_P1;SDS_P2;PMS_P1;PMS_P2;Temp;Humidity;BMP_temperature;BMP_pressure;BME280_temperature;BME280_humidity;BME280_pressure;Samples;Min_cycle;Max_cycle;Signal;HPM_P1;HPM_P2
2021/05/13 00:00:17;;;;;;;15.55;2.78;;;38.40;11.80;;;;;;5114873;28;20068;-66
2021/05/13 00:02:45;;;;;;;12.70;2.08;;;38.40;11.60;;;;;;5114744;28;20060;-66
2021/05/13 00:05:13;;;;;;;14.25;2.53;;;38.30;11.00;;;;;;5114358;28;20088;-67
2021/05/13 00:07:40;;;;;;;14.95;2.65;;;38.20;11.10;;;;;;5114529;28;20084;-67
2021/05/13 00:10:13;;;;;;;15.57;2.63;;;38.10;12.30;;;;;;5114586;28;20076;-68
2021/05/13 00:12:50;;;;;;;13.98;2.10;;;38.10;12.70;;;;;;5114346;28;20065;-68
2021/05/13 00:15:26;;;;;;;16.50;2.53;;;38.10;12.30;;;;;;5114241;28;20074;-69
2021/05/13 00:17:54;;;;;;;14.85;2.35;;;38.00;11.30;;;;;;5114709;28;20553;-67
2021/05/13 00:23:42;;;;;;;15.55;2.78;;;37.90;12.00;;;;;;5114264;28;20560;-67
2021/05/13 00:26:08;;;;;;;16.63;2.50;;;37.90;12.20;;;;;;5114185;28;20095;-69
2021/05/13 00:28:35;;;;;;;13.07;2.70;;;37.90;12.40;;;;;;5095904;28;20076;-68
2021/05/13 00:34:23;;;;;;;9.88;2.03;;;37.90;12.10;;;;;;5114226;28;20155;-66
2021/05/13 00:36:50;;;;;;;11.20;2.42;;;37.90;11.60;;;;;;5095759;28;20075;-68
2021/05/13 00:39:16;;;;;;;13.30;2.10;;;37.80;11.50;;;;;;5114308;28;20071;-67
2021/05/13 00:41:43;;;;;;;14.13;2.38;;;37.80;11.70;;;;;;5114089;28;20068;-67
2021/05/13 00:47:34;;;;;;;16.08;3.00;;;37.70;11.00;;;;;;5114161;28;20424;-68
2021/05/13 00:50:01;;;;;;;11.43;2.05;;;37.60;10.90;;;;;;5113870;28;20114;-68
2021/05/13 00:52:29;;;;;;;13.80;2.33;;;37.50;10.70;;;;;;5113750;28;20437;-66
2021/05/13 00:54:56;;;;;;;18.40;2.70;;;37.40;11.00;;;;;;5113679;28;20084;-67
2021/05/13 00:57:22;;;;;;;9.73;2.80;;;37.40;10.80;;;;;;5113766;28;20096;-67
2021/05/13 00:59:53;;;;;;;16.05;3.03;;;37.30;10.60;;;;;;5113741;28;20068;-69
2021/05/13 01:02:20;;;;;;;11.70;2.60;;;37.20;10.80;;;;;;5113760;28;20060;-65
2021/05/13 01:04:46;;;;;;;12.45;2.13;;;37.20;10.80;;;;;;5113539;28;20099;-68
2021/05/13 01:07:13;;;;;;;18.63;2.75;;;37.10;10.80;;;;;;5095386;28;20076;-66
2021/05/13 01:09:39;;;;;;;14.43;2.50;;;37.10;10.80;;;;;;5113686;28;20517;-68
2021/05/13 01:12:15;;;;;;;14.10;2.95;;;37.00;10.90;;;;;;5095573;28;20418;-67
2021/05/13 01:14:47;;;;;;;14.30;2.95;;;36.90;10.90;;;;;;5113576;28;20529;-69
2021/05/13 01:19:46;;;;;;;11.52;3.00;;;36.70;10.80;;;;;;5113592;28;20064;-68
2021/05/13 01:22:17;;;;;;;14.48;2.85;;;36.60;10.80;;;;;;5113648;28;20076;-70
2021/05/13 01:24:44;;;;;;;16.35;2.85;;;36.60;11.20;;;;;;5113596;28;20116;-67
2021/05/13 01:27:11;;;;;;;9.38;2.10;;;36.50;10.70;;;;;;5113479;28;20128;-67
2021/05/13 01:29:44;;;;;;;11.48;2.42;;;36.40;11.00;;;;;;5095291;28;20167;-67
2021/05/13 01:32:12;;;;;;;18.63;2.92;;;36.30;11.20;;;;;;5115754;28;20076;-68
2021/05/13 01:34:39;;;;;;;13.02;2.75;;;36.20;11.30;;;;;;5099298;28;20068;-67
2021/05/13 01:37:05;;;;;;;13.32;2.95;;;36.40;11.40;;;;;;5117545;28;20080;-67
2021/05/13 01:39:32;;;;;;;12.05;2.90;;;36.20;11.20;;;;;;5117336;28;20071;-66
2021/05/13 01:41:59;;;;;;;14.35;2.30;;;36.40;11.20;;;;;;5117523;28;20064;-65
2021/05/13 01:44:25;;;;;;;19.77;3.58;;;36.40;11.10;;;;;;5117341;28;20088;-67
2021/05/13 01:50:14;;;;;;;13.40;2.95;;;35.90;11.70;;;;;;5117771;28;20130;-68
2021/05/13 01:52:40;;;;;;;23.63;2.95;;;35.80;12.20;;;;;;5117764;28;20078;-68
2021/05/13 01:55:07;;;;;;;16.40;2.50;;;35.90;12.10;;;;;;5099042;28;20580;-68
2021/05/13 02:01:11;;;;;;;15.15;3.55;;;36.00;12.20;;;;;;5107319;28;20234;-67
2021/05/13 02:03:38;;;;;;;8.95;2.67;;;35.50;12.90;;;;;;5116866;28;20107;-68
2021/05/13 02:06:05;;;;;;;11.35;2.80;;;35.30;13.10;;;;;;5116713;28;20453;-67
2021/05/13 02:08:32;;;;;;;15.85;3.00;;;35.10;13.60;;;;;;5116855;28;20061;-69
2021/05/13 02:10:59;;;;;;;23.13;3.55;;;35.00;13.80;;;;;;5116771;28;20064;-67
2021/05/13 02:13:26;;;;;;;20.63;2.92;;;34.80;14.10;;;;;;5116901;28;20516;-67
2021/05/13 02:15:53;;;;;;;22.20;3.70;;;34.80;14.40;;;;;;5116825;28;20433;-66
2021/05/13 02:18:22;;;;;;;25.08;3.85;;;34.60;14.60;;;;;;5116787;28;20424;-68
2021/05/13 02:20:50;;;;;;;20.77;3.17;;;34.50;15.00;;;;;;5116573;28;20064;-67
2021/05/13 02:23:17;;;;;;;31.23;3.75;;;34.30;15.20;;;;;;5117832;28;20533;-68
2021/05/13 02:29:06;;;;;;;18.05;3.70;;;34.10;15.90;;;;;;5116867;28;20131;-68
2021/05/13 02:31:32;;;;;;;25.38;4.20;;;34.00;16.00;;;;;;5116440;28;20433;-69
2021/05/13 02:33:59;;;;;;;30.88;4.75;;;33.90;16.20;;;;;;5116397;28;20065;-70
2021/05/13 02:36:25;;;;;;;30.40;4.65;;;33.80;16.60;;;;;;5116487;28;20147;-68
2021/05/13 02:38:52;;;;;;;37.05;6.35;;;33.60;17.20;;;;;;5116446;28;20433;-70
2021/05/13 02:44:40;;;;;;;38.63;8.38;;;33.40;18.40;;;;;;5115846;28;20123;-68
2021/05/13 02:47:07;;;;;;;54.70;15.48;;;33.10;18.70;;;;;;5097782;28;20075;-69
2021/05/13 02:49:33;;;;;;;78.95;18.35;;;33.00;18.90;;;;;;5116100;28;20064;-69
2021/05/13 02:55:23;;;;;;;89.57;22.73;;;32.80;19.10;;;;;;5116384;28;20110;-68
2021/05/13 02:57:50;;;;;;;103.78;25.27;;;32.70;19.20;;;;;;5097710;28;20099;-68
2021/05/13 03:02:44;;;;;;;98.53;23.08;;;32.50;19.40;;;;;;5115733;28;20105;-68
2021/05/13 03:05:12;;;;;;;85.45;19.88;;;32.30;19.40;;;;;;5115667;28;20092;-69
2021/05/13 03:11:01;;;;;;;73.68;15.70;;;32.20;19.80;;;;;;5116120;28;20071;-68
2021/05/13 03:13:28;;;;;;;63.83;12.88;;;32.00;19.80;;;;;;5115775;28;20068;-68
2021/05/13 03:15:54;;;;;;;62.63;14.02;;;31.90;19.80;;;;;;5115803;28;20071;-70
2021/05/13 03:18:24;;;;;;;65.00;12.52;;;31.90;19.80;;;;;;5115629;28;20075;-68
2021/05/13 03:21:01;;;;;;;68.70;13.35;;;31.80;19.70;;;;;;5115646;28;20086;-69
2021/05/13 03:24:21;;;;;;;79.90;13.90;;;31.70;19.80;;;;;;5115701;28;20445;-69
2021/05/13 03:26:14;;;;;;;88.60;15.68;;;31.60;19.80;;;;;;5104160;28;20190;-69
2021/05/13 03:28:41;;;;;;;84.68;17.73;;;31.60;19.80;;;;;;5115505;28;20076;-70
2021/05/13 03:31:07;;;;;;;96.20;19.75;;;31.50;20.00;;;;;;5097429;28;20100;-70
2021/05/13 03:33:34;;;;;;;93.43;19.55;;;31.40;19.80;;;;;;5097259;28;20425;-69
2021/05/13 03:36:00;;;;;;;103.13;19.45;;;31.40;19.90;;;;;;5115275;28;20478;-69
2021/05/13 03:38:27;;;;;;;89.80;21.65;;;31.30;19.90;;;;;;5115093;28;20563;-70
2021/05/13 03:40:53;;;;;;;117.70;22.92;;;31.20;19.90;;;;;;5097114;28;20440;-69
2021/05/13 03:43:20;;;;;;;144.57;25.42;;;31.10;20.00;;;;;;5115235;28;20072;-68
2021/05/13 03:45:46;;;;;;;123.93;27.08;;;31.10;20.10;;;;;;5114694;28;20098;-69
2021/05/13 03:48:12;;;;;;;117.82;24.77;;;30.90;19.90;;;;;;5096717;28;20068;-68
2021/05/13 03:50:39;;;;;;;121.35;24.05;;;30.90;20.10;;;;;;5114928;28;20076;-69
2021/05/13 03:56:28;;;;;;;126.22;24.63;;;30.70;20.00;;;;;;5115052;28;20533;-68
2021/05/13 03:58:58;;;;;;;135.65;25.05;;;30.70;20.20;;;;;;5114939;28;20114;-68
2021/05/13 04:01:41;;;;;;;131.57;25.58;;;30.60;20.20;;;;;;5114476;28;20108;-67
2021/05/13 04:04:09;;;;;;;117.93;22.52;;;30.50;20.30;;;;;;5114514;28;20068;-68
2021/05/13 04:06:35;;;;;;;104.20;24.13;;;30.50;20.40;;;;;;5114520;28;20080;-68
2021/05/13 04:09:08;;;;;;;101.13;22.20;;;30.40;20.50;;;;;;5096553;28;20068;-68
2021/05/13 04:11:41;;;;;;;89.35;18.65;;;30.30;20.70;;;;;;5114321;28;20135;-68
2021/05/13 04:14:09;;;;;;;83.88;17.40;;;30.30;20.90;;;;;;5096101;28;20080;-68
2021/05/13 04:16:39;;;;;;;80.80;13.73;;;30.30;21.20;;;;;;5095991;28;20483;-68
2021/05/13 04:19:06;;;;;;;50.90;10.57;;;30.20;21.40;;;;;;5114355;28;20075;-69
2021/05/13 04:21:32;;;;;;;62.53;11.05;;;30.10;21.70;;;;;;5114198;28;20098;-68
2021/05/13 04:23:59;;;;;;;52.60;9.60;;;30.00;21.90;;;;;;5114195;28;20068;-67
2021/05/13 04:26:25;;;;;;;53.83;10.93;;;30.00;22.10;;;;;;5114423;28;20552;-69
2021/05/13 04:28:52;;;;;;;56.55;11.82;;;30.00;22.40;;;;;;5095629;28;20128;-69
2021/05/13 04:34:40;;;;;;;65.85;15.55;;;29.80;22.70;;;;;;5114190;28;20528;-70
2021/05/13 04:37:07;;;;;;;81.93;15.55;;;29.70;22.70;;;;;;5113697;28;20125;-68
2021/05/13 04:39:33;;;;;;;87.40;15.95;;;29.70;23.10;;;;;;5095370;28;20079;-68
2021/05/13 04:42:00;;;;;;;94.57;13.10;;;29.60;23.10;;;;;;5113863;28;20064;-68
2021/05/13 04:44:26;;;;;;;70.75;11.23;;;29.50;22.80;;;;;;5113672;28;20088;-68
2021/05/13 04:46:58;;;;;;;87.93;12.02;;;29.60;22.80;;;;;;5113743;28;20518;-68
2021/05/13 04:49:25;;;;;;;70.65;11.77;;;29.50;22.80;;;;;;5113775;28;20091;-69
2021/05/13 04:51:53;;;;;;;64.00;11.85;;;29.40;22.60;;;;;;5113651;28;20060;-69
2021/05/13 04:54:19;;;;;;;73.07;10.63;;;29.30;22.60;;;;;;5113664;28;20072;-68
2021/05/13 04:56:46;;;;;;;46.42;8.30;;;29.30;22.90;;;;;;5113777;28;20474;-70
2021/05/13 04:59:13;;;;;;;66.88;9.07;;;29.20;23.00;;;;;;5113700;28;20113;-69
2021/05/13 05:01:39;;;;;;;39.15;7.88;;;29.20;23.20;;;;;;5113305;28;20112;-69
2021/05/13 05:04:06;;;;;;;42.45;7.32;;;29.10;23.10;;;;;;5113762;28;20064;-69
2021/05/13 05:06:33;;;;;;;53.08;6.97;;;29.00;22.90;;;;;;5112989;28;20076;-70
2021/05/13 05:09:00;;;;;;;43.08;7.40;;;29.00;23.00;;;;;;5113901;28;20072;-70
2021/05/13 05:11:27;;;;;;;38.50;6.18;;;28.90;23.10;;;;;;5095972;28;20099;-68
2021/05/13 05:13:53;;;;;;;42.80;6.28;;;28.80;23.10;;;;;;5116634;28;20080;-69
2021/05/13 05:16:20;;;;;;;43.28;7.15;;;28.70;22.90;;;;;;5117518;28;20060;-69
2021/05/13 05:18:46;;;;;;;44.08;6.97;;;28.70;23.40;;;;;;5113927;28;20068;-68
2021/05/13 05:24:35;;;;;;;36.92;5.93;;;28.60;23.30;;;;;;5113977;28;20561;-69
2021/05/13 05:27:02;;;;;;;36.28;6.03;;;28.50;23.40;;;;;;5113462;28;20147;-70
2021/05/13 05:29:29;;;;;;;41.05;5.97;;;28.50;23.80;;;;;;5113537;28;20107;-70
2021/05/13 05:31:55;;;;;;;35.00;6.38;;;28.30;23.60;;;;;;5095138;28;20072;-69
2021/05/13 05:34:22;;;;;;;42.47;6.18;;;28.30;23.60;;;;;;5095514;28;20100;-70
2021/05/13 05:36:48;;;;;;;35.15;6.32;;;28.30;23.80;;;;;;5095469;28;20414;-69
2021/05/13 05:39:14;;;;;;;43.67;7.78;;;28.20;23.80;;;;;;5113263;28;20068;-68
2021/05/13 05:41:41;;;;;;;47.85;9.02;;;28.20;23.60;;;;;;5113406;28;20072;-68
2021/05/13 05:44:08;;;;;;;132.25;10.68;;;28.10;23.60;;;;;;5113426;28;20079;-70
2021/05/13 05:46:34;;;;;;;37.80;6.30;;;28.10;24.10;;;;;;5113207;28;20155;-67
2021/05/13 05:49:01;;;;;;;113.38;11.20;;;28.10;24.50;;;;;;5113583;28;20065;-68
2021/05/13 05:51:28;;;;;;;188.77;14.13;;;28.00;24.40;;;;;;5113369;28;20060;-68
2021/05/13 05:57:16;;;;;;;93.25;9.48;;;28.00;24.80;;;;;;5113272;28;20079;-67
2021/05/13 05:59:42;;;;;;;75.53;10.00;;;27.80;24.80;;;;;;5113256;28;20518;-68
2021/05/13 06:02:09;;;;;;;52.22;8.48;;;27.70;24.70;;;;;;5113056;28;20108;-66
2021/05/13 06:04:35;;;;;;;61.80;8.68;;;27.70;24.70;;;;;;5113162;28;20091;-68
2021/05/13 06:07:01;;;;;;;59.10;8.40;;;27.60;25.00;;;;;;5113316;28;20071;-67
2021/05/13 06:12:52;;;;;;;134.55;11.90;;;27.60;25.50;;;;;;5113335;28;20068;-66
2021/05/13 06:15:21;;;;;;;69.65;9.27;;;27.50;25.90;;;;;;5112833;28;20202;-64
2021/05/13 06:17:47;;;;;;;100.40;10.65;;;27.30;25.70;;;;;;5114474;28;20540;-65
2021/05/13 06:20:21;;;;;;;86.10;11.60;;;27.30;25.90;;;;;;5116493;28;20151;-67
2021/05/13 06:22:48;;;;;;;64.80;15.25;;;27.20;25.90;;;;;;5116608;28;20064;-66
2021/05/13 06:25:16;;;;;;;61.53;16.17;;;27.10;26.30;;;;;;5116427;28;20110;-65
2021/05/13 06:27:43;;;;;;;76.50;18.10;;;27.10;26.50;;;;;;5116575;28;20566;-66
2021/05/13 06:30:10;;;;;;;96.05;17.52;;;27.10;26.90;;;;;;5098293;28;20072;-65
2021/05/13 06:32:37;;;;;;;72.32;17.58;;;27.00;27.30;;;;;;5116374;28;20648;-66
2021/05/13 06:35:04;;;;;;;68.88;15.73;;;26.90;27.70;;;;;;5116289;28;20071;-68
2021/05/13 06:37:31;;;;;;;38.72;9.77;;;26.90;28.10;;;;;;5116528;28;20066;-69
2021/05/13 06:39:57;;;;;;;33.38;8.48;;;26.80;28.70;;;;;;5116426;28;20230;-68
2021/05/13 06:42:25;;;;;;;31.70;7.45;;;26.80;29.00;;;;;;5098151;28;20159;-68
2021/05/13 06:44:52;;;;;;;29.88;6.28;;;26.80;29.40;;;;;;5116492;28;20092;-68
2021/05/13 06:47:19;;;;;;;33.08;6.55;;;26.60;29.60;;;;;;5116535;28;20064;-68
2021/05/13 06:49:45;;;;;;;31.92;6.30;;;26.60;30.20;;;;;;5116519;28;20078;-69
2021/05/13 06:52:12;;;;;;;28.33;5.80;;;26.50;30.60;;;;;;5116429;28;20065;-67
2021/05/13 06:54:38;;;;;;;35.72;6.88;;;26.60;30.80;;;;;;5116270;28;20072;-69
2021/05/13 06:57:06;;;;;;;32.03;7.18;;;26.60;30.80;;;;;;5116037;28;20060;-69
2021/05/13 06:59:33;;;;;;;37.97;7.25;;;26.50;30.50;;;;;;5097609;28;20437;-69
2021/05/13 07:01:59;;;;;;;47.85;7.97;;;26.50;30.30;;;;;;5115989;28;20545;-69
2021/05/13 07:04:27;;;;;;;42.55;7.95;;;26.40;30.30;;;;;;5097727;28;20080;-70
2021/05/13 07:10:15;;;;;;;33.05;7.40;;;26.10;31.60;;;;;;5115932;28;20571;-69
2021/05/13 07:12:42;;;;;;;35.20;7.93;;;26.20;32.50;;;;;;5115405;28;20068;-68
2021/05/13 07:15:09;;;;;;;30.50;7.13;;;26.00;33.30;;;;;;5115737;28;20070;-69
2021/05/13 07:17:36;;;;;;;33.90;7.00;;;26.10;33.70;;;;;;5116242;28;20064;-69
2021/05/13 07:20:03;;;;;;;36.35;6.85;;;26.10;33.70;;;;;;5115938;28;20068;-68
2021/05/13 07:22:30;;;;;;;36.72;6.85;;;26.10;33.70;;;;;;5115742;28;20502;-67
2021/05/13 07:24:56;;;;;;;42.63;7.35;;;26.00;33.60;;;;;;5115538;28;20118;-68
2021/05/13 07:27:25;;;;;;;31.35;7.30;;;25.90;33.80;;;;;;5115558;28;20489;-68
2021/05/13 07:29:51;;;;;;;48.78;7.97;;;25.80;33.90;;;;;;5114821;28;20103;-68
2021/05/13 07:32:18;;;;;;;46.55;7.90;;;25.70;34.30;;;;;;5115622;28;20628;-69
2021/05/13 07:34:44;;;;;;;34.47;6.97;;;25.60;34.70;;;;;;5115468;28;20068;-69
2021/05/13 07:37:11;;;;;;;36.35;7.57;;;25.60;35.30;;;;;;5115428;28;20064;-68
2021/05/13 07:39:38;;;;;;;36.17;7.80;;;25.60;35.50;;;;;;5115496;28;20079;-68
2021/05/13 07:42:04;;;;;;;44.60;8.45;;;25.40;35.90;;;;;;5115316;28;20548;-68
2021/05/13 07:44:31;;;;;;;40.47;7.63;;;25.30;36.20;;;;;;5096989;28;20173;-69
2021/05/13 07:46:59;;;;;;;46.22;8.57;;;25.30;36.50;;;;;;5115215;28;20068;-68
2021/05/13 07:49:27;;;;;;;38.95;7.72;;;25.30;36.80;;;;;;5115246;28;20065;-68
2021/05/13 07:51:54;;;;;;;44.53;8.43;;;25.10;37.00;;;;;;5096741;28;20133;-69
2021/05/13 07:54:22;;;;;;;40.50;7.93;;;25.10;37.20;;;;;;5096895;28;20074;-69
2021/05/13 07:56:48;;;;;;;36.13;7.70;;;25.10;37.70;;;;;;5115183;28;20064;-68
2021/05/13 07:59:15;;;;;;;41.22;7.85;;;25.10;38.10;;;;;;5096804;28;20068;-67
2021/05/13 08:01:42;;;;;;;39.17;7.88;;;24.90;38.50;;;;;;5115319;28;20157;-68
2021/05/13 08:04:08;;;;;;;35.78;7.45;;;24.90;38.90;;;;;;5117855;28;20067;-67
2021/05/13 08:06:35;;;;;;;42.63;8.13;;;24.90;39.10;;;;;;5122285;28;20101;-68
2021/05/13 08:09:01;;;;;;;38.20;7.65;;;24.80;39.40;;;;;;5119435;28;20124;-69
2021/05/13 08:11:28;;;;;;;41.65;7.97;;;24.70;39.90;;;;;;5116812;28;20076;-67
2021/05/13 08:17:16;;;;;;;48.08;8.75;;;24.70;40.80;;;;;;5115147;28;20083;-68
2021/05/13 08:19:43;;;;;;;47.63;8.02;;;24.50;41.40;;;;;;5114668;28;20064;-68
2021/05/13 08:22:09;;;;;;;33.22;8.18;;;24.50;42.10;;;;;;5114586;28;20525;-68
2021/05/13 08:24:36;;;;;;;30.00;7.65;;;24.40;42.40;;;;;;5114243;28;20127;-69
2021/05/13 08:27:02;;;;;;;42.53;7.63;;;24.40;42.60;;;;;;5114377;28;20064;-70
2021/05/13 08:29:30;;;;;;;37.33;7.95;;;24.40;43.00;;;;;;5114849;28;20513;-68
2021/05/13 08:31:58;;;;;;;31.80;7.35;;;24.40;43.10;;;;;;5114365;28;20549;-69
2021/05/13 08:34:24;;;;;;;31.55;6.55;;;24.30;43.20;;;;;;5114186;28;20069;-69
2021/05/13 08:36:51;;;;;;;29.83;7.07;;;24.20;43.90;;;;;;5114259;28;20071;-69
2021/05/13 08:39:17;;;;;;;44.15;7.63;;;24.20;44.30;;;;;;5114192;28;20072;-69
2021/05/13 08:41:44;;;;;;;32.90;7.45;;;24.20;44.40;;;;;;5113532;28;20071;-70
2021/05/13 08:44:10;;;;;;;34.13;7.40;;;24.30;44.40;;;;;;5095728;28;20080;-69
2021/05/13 08:46:38;;;;;;;34.30;6.20;;;24.20;44.50;;;;;;5114084;28;20072;-68
2021/05/13 08:52:27;;;;;;;39.65;8.20;;;24.00;45.30;;;;;;5115000;28;20425;-67
2021/05/13 08:55:04;;;;;;;42.88;7.50;;;23.90;45.60;;;;;;5114278;28;20079;-69
2021/05/13 08:57:31;;;;;;;31.92;7.20;;;23.80;45.90;;;;;;5113838;28;20075;-67
2021/05/13 08:59:58;;;;;;;36.90;7.05;;;23.80;45.90;;;;;;5113763;28;20060;-68
2021/05/13 09:02:29;;;;;;;32.53;7.13;;;23.80;45.80;;;;;;5113885;28;20151;-67
2021/05/13 09:08:22;;;;;;;32.55;6.30;;;23.70;46.10;;;;;;5114374;28;20130;-70
2021/05/13 09:10:50;;;;;;;31.58;6.22;;;23.70;46.10;;;;;;5095479;28;20080;-68
2021/05/13 09:13:29;;;;;;;34.47;6.88;;;23.70;46.10;;;;;;5113764;28;20070;-69
2021/05/13 09:15:56;;;;;;;33.05;6.65;;;23.70;46.00;;;;;;5113928;28;20075;-68
2021/05/13 09:18:32;;;;;;;30.00;7.22;;;23.70;45.90;;;;;;5113641;28;20103;-68
2021/05/13 09:21:06;;;;;;;37.05;7.30;;;23.70;46.10;;;;;;5095596;28;20078;-68
2021/05/13 09:23:36;;;;;;;37.42;6.72;;;23.70;46.10;;;;;;5113739;28;20076;-69
2021/05/13 09:26:17;;;;;;;36.88;6.97;;;23.70;46.10;;;;;;5113670;28;20099;-69
2021/05/13 09:28:49;;;;;;;39.95;7.50;;;23.70;46.10;;;;;;5113887;28;20102;-69
2021/05/13 09:31:38;;;;;;;36.90;6.65;;;23.70;46.20;;;;;;5113693;28;20076;-69
2021/05/13 09:34:09;;;;;;;27.40;5.70;;;23.60;45.60;;;;;;5113831;28;20061;-69
2021/05/13 09:36:36;;;;;;;32.03;5.68;;;23.60;45.60;;;;;;5113428;28;20579;-69
2021/05/13 09:39:24;;;;;;;29.92;5.95;;;23.60;45.40;;;;;;5113573;28;20074;-69
2021/05/13 09:42:05;;;;;;;25.77;5.28;;;23.70;45.20;;;;;;5113734;28;20151;-69
2021/05/13 09:44:36;;;;;;;27.42;5.15;;;23.60;45.30;;;;;;5113714;28;20072;-67
2021/05/13 09:47:19;;;;;;;27.52;6.20;;;23.50;45.10;;;;;;5095386;28;20101;-69
2021/05/13 09:53:08;;;;;;;25.80;5.18;;;23.50;44.30;;;;;;5115810;28;20125;-68
2021/05/13 09:55:35;;;;;;;33.88;5.45;;;23.50;43.60;;;;;;5099201;28;20076;-68
2021/05/13 09:58:06;;;;;;;19.65;5.13;;;23.50;42.00;;;;;;5117435;28;20064;-68
2021/05/13 10:00:44;;;;;;;28.48;5.53;;;23.40;41.30;;;;;;5116936;28;20143;-69
2021/05/13 10:03:17;;;;;;;30.00;5.32;;;23.30;40.50;;;;;;5099174;28;20079;-69
2021/05/13 10:09:05;;;;;;;29.88;5.93;;;23.30;38.20;;;;;;5117315;28;20129;-68
2021/05/13 10:11:33;;;;;;;31.63;5.13;;;23.30;37.10;;;;;;5117461;28;20061;-68
2021/05/13 10:13:59;;;;;;;30.83;6.20;;;23.40;36.50;;;;;;5116942;28;20061;-69
2021/05/13 10:16:29;;;;;;;24.38;4.90;;;23.40;36.90;;;;;;5116948;28;20111;-68
2021/05/13 10:19:05;;;;;;;32.50;5.28;;;23.40;37.20;;;;;;5116952;28;20558;-68
2021/05/13 10:21:33;;;;;;;28.30;4.88;;;23.40;36.30;;;;;;5117103;28;20099;-69
2021/05/13 10:23:59;;;;;;;23.40;4.95;;;23.40;34.40;;;;;;5116738;28;20445;-68
2021/05/13 10:26:33;;;;;;;22.85;4.15;;;23.30;33.80;;;;;;5116807;28;20134;-67
2021/05/13 10:28:59;;;;;;;18.15;4.53;;;23.20;33.90;;;;;;5116683;28;20087;-68
2021/05/13 10:31:36;;;;;;;28.85;4.32;;;23.20;33.50;;;;;;5098381;28;20110;-66
2021/05/13 10:34:03;;;;;;;30.77;4.60;;;23.20;33.30;;;;;;5116176;28;20075;-68
2021/05/13 10:36:30;;;;;;;25.60;4.55;;;23.30;32.80;;;;;;5116556;28;20060;-68
2021/05/13 10:39:06;;;;;;;30.58;5.35;;;23.30;32.40;;;;;;5116699;28;20076;-68
2021/05/13 10:41:37;;;;;;;23.15;4.50;;;23.30;31.80;;;;;;5098197;28;20064;-69
2021/05/13 10:44:10;;;;;;;27.45;4.63;;;23.30;31.60;;;;;;5116339;28;20064;-69
2021/05/13 10:46:38;;;;;;;24.60;4.82;;;23.30;30.90;;;;;;5116308;28;20100;-68
2021/05/13 10:49:18;;;;;;;29.50;4.78;;;23.30;30.60;;;;;;5116420;28;20544;-67
2021/05/13 10:51:46;;;;;;;25.95;6.22;;;23.40;30.50;;;;;;5116183;28;20216;-67
2021/05/13 10:54:28;;;;;;;24.05;5.10;;;23.30;30.40;;;;;;5098383;28;20064;-67
2021/05/13 10:57:18;;;;;;;26.20;6.10;;;23.30;30.40;;;;;;5101183;28;20079;-68
2021/05/13 11:00:09;;;;;;;25.73;5.68;;;23.30;30.60;;;;;;5121590;28;20088;-71
2021/05/13 11:02:36;;;;;;;25.50;5.50;;;23.30;30.80;;;;;;5097954;28;20159;-68
2021/05/13 11:05:23;;;;;;;33.78;5.88;;;23.20;30.90;;;;;;5115056;28;20104;-69
2021/05/13 11:07:49;;;;;;;28.13;7.05;;;23.20;31.00;;;;;;5115699;28;20421;-69
2021/05/13 11:10:16;;;;;;;29.50;7.53;;;23.20;30.90;;;;;;5116101;28;20072;-68
2021/05/13 11:12:42;;;;;;;33.17;7.60;;;23.10;31.00;;;;;;5116101;28;20496;-68
2021/05/13 11:15:24;;;;;;;38.17;9.45;;;23.20;30.90;;;;;;5097469;28;20079;-68
2021/05/13 11:17:56;;;;;;;35.85;9.50;;;23.20;30.70;;;;;;5115840;28;20072;-69
2021/05/13 11:20:30;;;;;;;46.05;12.88;;;23.10;30.80;;;;;;5115772;28;20069;-68
2021/05/13 11:23:04;;;;;;;48.17;13.60;;;23.10;31.00;;;;;;5115596;28;20125;-68
2021/05/13 11:25:40;;;;;;;43.25;12.38;;;23.20;31.30;;;;;;5115549;28;20084;-69
2021/05/13 11:28:32;;;;;;;39.95;11.60;;;23.20;31.60;;;;;;5115386;28;20120;-68
2021/05/13 11:31:07;;;;;;;45.15;10.20;;;23.10;31.00;;;;;;5115612;28;20099;-68
2021/05/13 11:33:45;;;;;;;41.30;9.18;;;23.00;31.00;;;;;;5115571;28;20060;-68
2021/05/13 11:36:35;;;;;;;41.85;9.20;;;22.90;30.90;;;;;;5097403;28;20126;-67
2021/05/13 11:39:09;;;;;;;31.27;6.97;;;22.90;30.90;;;;;;5104650;28;20084;-68
2021/05/13 11:41:36;;;;;;;27.00;7.43;;;23.00;30.90;;;;;;5115372;28;20148;-69
2021/05/13 11:44:03;;;;;;;32.05;6.60;;;22.90;30.90;;;;;;5115119;28;20441;-69
2021/05/13 11:46:30;;;;;;;29.38;6.95;;;22.90;31.00;;;;;;5115279;28;20498;-68
2021/05/13 11:48:57;;;;;;;31.85;6.95;;;22.90;31.10;;;;;;5115020;28;20072;-67
2021/05/13 11:51:26;;;;;;;38.25;7.15;;;22.90;30.90;;;;;;5115089;28;20072;-68
2021/05/13 11:54:01;;;;;;;35.95;7.38;;;22.90;30.80;;;;;;5115159;28;20102;-68
2021/05/13 11:56:29;;;;;;;39.83;7.55;;;22.90;31.00;;;;;;5115431;28;20078;-69
2021/05/13 11:58:57;;;;;;;42.70;7.22;;;22.90;30.80;;;;;;5115141;28;20069;-69
2021/05/13 12:01:30;;;;;;;30.70;7.60;;;22.80;30.90;;;;;;5114971;28;20119;-68
2021/05/13 12:04:22;;;;;;;32.22;6.78;;;22.70;31.20;;;;;;5114971;28;20534;-68
2021/05/13 12:06:57;;;;;;;36.33;6.93;;;22.70;31.10;;;;;;5105600;28;20096;-69
2021/05/13 12:09:25;;;;;;;38.53;7.32;;;22.70;31.00;;;;;;5096582;28;20079;-68
2021/05/13 12:11:53;;;;;;;38.03;7.20;;;22.60;30.80;;;;;;5114782;28;20433;-69
2021/05/13 12:14:25;;;;;;;34.17;6.68;;;22.60;30.60;;;;;;5114575;28;20068;-69
2021/05/13 12:16:57;;;;;;;32.95;6.70;;;22.50;30.50;;;;;;5114569;28;20076;-69
2021/05/13 12:19:25;;;;;;;37.70;6.10;;;22.50;30.20;;;;;;5114637;28;20194;-68
2021/05/13 12:21:54;;;;;;;32.53;7.28;;;22.40;29.90;;;;;;5114593;28;20064;-69
2021/05/13 12:24:37;;;;;;;37.60;6.70;;;22.40;29.80;;;;;;5096164;28;20079;-67
2021/05/13 12:27:05;;;;;;;33.03;7.43;;;22.40;29.90;;;;;;5114447;28;20076;-67
2021/05/13 12:29:35;;;;;;;44.47;7.45;;;22.40;29.90;;;;;;5114640;28;20502;-68
2021/05/13 12:32:02;;;;;;;43.58;8.55;;;22.30;29.60;;;;;;5114601;28;20068;-68
2021/05/13 12:34:34;;;;;;;43.95;8.38;;;22.30;29.80;;;;;;5114645;28;20065;-68
2021/05/13 12:37:02;;;;;;;27.38;6.72;;;22.30;29.50;;;;;;5114327;28;20514;-67
2021/05/13 12:39:30;;;;;;;29.95;6.70;;;22.30;29.60;;;;;;5114423;28;20533;-69
2021/05/13 12:41:57;;;;;;;37.72;7.38;;;22.20;29.50;;;;;;5096092;28;20521;-69
2021/05/13 12:44:33;;;;;;;54.05;8.18;;;22.20;29.60;;;;;;5095942;28;20072;-68
2021/05/13 12:47:01;;;;;;;43.50;7.32;;;22.20;29.60;;;;;;5114306;28;20060;-67
2021/05/13 12:49:30;;;;;;;38.75;9.13;;;22.20;29.50;;;;;;5095664;28;20100;-68
2021/05/13 12:52:11;;;;;;;45.72;8.45;;;22.10;29.40;;;;;;5114124;28;20072;-68
2021/05/13 12:54:42;;;;;;;51.50;8.30;;;22.10;29.40;;;;;;5114454;28;20549;-69
2021/05/13 13:00:32;;;;;;;50.92;8.63;;;22.10;29.50;;;;;;5113969;28;20118;-68
2021/05/13 13:03:07;;;;;;;51.83;9.52;;;22.20;29.60;;;;;;5114012;28;20445;-68
2021/05/13 13:05:34;;;;;;;47.35;8.30;;;22.20;29.80;;;;;;5113871;28;20133;-69
2021/05/13 13:08:01;;;;;;;43.60;7.93;;;22.20;30.00;;;;;;5113772;28;20072;-69
2021/05/13 13:10:31;;;;;;;41.78;8.13;;;22.20;29.90;;;;;;5113658;28;20084;-67
2021/05/13 13:13:43;;;;;;;43.60;8.77;;;22.20;30.00;;;;;;5095509;28;20072;-68
2021/05/13 13:16:02;;;;;;;45.83;9.52;;;22.20;30.00;;;;;;5110478;28;20087;-68
2021/05/13 13:18:29;;;;;;;48.60;10.52;;;22.00;30.40;;;;;;5113859;28;20064;-69
2021/05/13 13:20:57;;;;;;;41.00;8.55;;;22.10;30.80;;;;;;5114036;28;20072;-68
2021/05/13 13:23:25;;;;;;;52.63;9.40;;;22.10;31.20;;;;;;5113867;28;20076;-69
2021/05/13 13:25:56;;;;;;;59.60;8.18;;;22.20;31.60;;;;;;5113569;28;20554;-69
2021/05/13 13:28:23;;;;;;;51.05;7.47;;;22.20;32.20;;;;;;5116873;28;20090;-69
2021/05/13 13:30:52;;;;;;;71.10;9.75;;;22.20;32.00;;;;;;5118312;28;20093;-68
2021/05/13 13:33:24;;;;;;;58.40;9.18;;;22.20;32.00;;;;;;5118463;28;20370;-68
2021/05/13 13:35:53;;;;;;;60.05;8.55;;;22.20;31.50;;;;;;5099349;28;20079;-68
2021/05/13 13:38:20;;;;;;;54.20;8.90;;;22.20;32.00;;;;;;5117889;28;20075;-68
2021/05/13 13:40:48;;;;;;;30.15;6.85;;;22.20;32.60;;;;;;5117991;28;20068;-68
2021/05/13 13:43:15;;;;;;;42.85;9.05;;;22.20;32.60;;;;;;5117880;28;20560;-68
2021/05/13 13:45:43;;;;;;;44.28;8.65;;;22.30;32.10;;;;;;5117833;28;20106;-68
2021/05/13 13:48:12;;;;;;;43.97;9.10;;;22.30;32.20;;;;;;5122544;28;20072;-69
2021/05/13 13:50:40;;;;;;;42.97;9.00;;;22.30;32.00;;;;;;5123208;28;20076;-69
2021/05/13 13:53:08;;;;;;;52.45;11.05;;;22.40;31.70;;;;;;5118124;28;20079;-68
2021/05/13 13:58:56;;;;;;;100.38;24.45;;;22.60;32.20;;;;;;5117977;28;20107;-68
2021/05/13 14:01:23;;;;;;;125.65;28.05;;;22.60;34.00;;;;;;5117228;28;20104;-68